Time;durP1;ratioP1;P1;durP2;ratioP2;P2;SDS_P1;SDS_P2;PMS_P1;PMS_P2;Temp;Humidity;BMP_temperature;BMP_pressure;BME280_temperature;BME280_humidity;BME280_pressure;Samples;Min_cycle;Max_cycle;Signal;HPM_P1;HPM_P2
2021/07/25 00:01:49;;;;;;;15.93;9.07;;;20.70;99.90;;;19.87;76.47;101190.44;4950114;28;20027;-74
2021/07/25 00:04:15;;;;;;;18.85;9.57;;;20.70;99.90;;;19.85;75.75;101187.03;4958004;28;20043;-74
2021/07/25 00:06:41;;;;;;;21.35;9.18;;;20.80;99.90;;;19.89;75.85;101201.00;4961252;28;20097;-74
2021/07/25 00:09:07;;;;;;;15.30;9.82;;;20.80;99.90;;;19.87;75.27;101185.09;4967814;28;20026;-74
2021/07/25 00:11:33;;;;;;;15.13;9.13;;;20.80;99.90;;;19.87;75.23;101185.09;4934456;28;20059;-75
2021/07/25 00:14:03;;;;;;;13.98;9.40;;;20.80;99.90;;;19.83;75.26;101178.31;4951591;28;20023;-74
2021/07/25 00:16:30;;;;;;;16.38;9.13;;;20.70;99.90;;;19.78;75.84;101163.59;4940266;28;20049;-75
2021/07/25 00:18:58;;;;;;;16.65;9.57;;;20.70;99.90;;;19.87;74.29;101174.41;4984411;28;20035;-74
2021/07/25 00:21:24;;;;;;;16.05;9.60;;;20.70;99.90;;;19.93;73.68;101153.50;4967044;28;20470;-74
2021/07/25 00:23:53;;;;;;;15.05;9.27;;;20.80;99.90;;;19.90;73.20;101170.66;4946882;28;20023;-74
2021/07/25 00:26:25;;;;;;;16.48;9.48;;;20.80;99.90;;;19.96;72.67;101177.34;4955349;28;20035;-74
2021/07/25 00:28:51;;;;;;;21.80;9.88;;;20.90;99.90;;;20.05;71.44;101176.59;4988786;28;20022;-74
2021/07/25 00:31:17;;;;;;;21.48;9.70;;;20.90;99.90;;;20.03;71.60;101167.84;5006929;28;20030;-74
2021/07/25 00:33:48;;;;;;;19.85;9.75;;;21.00;99.90;;;20.11;70.49;101176.13;4973471;28;20022;-74
2021/07/25 00:36:14;;;;;;;23.70;9.68;;;21.00;99.90;;;20.06;70.60;101159.59;4990391;28;20039;-74
2021/07/25 00:38:40;;;;;;;16.00;9.60;;;21.00;99.90;;;20.18;70.42;101176.47;5002590;28;20093;-74
2021/07/25 00:41:15;;;;;;;18.92;10.00;;;21.00;99.90;;;20.05;70.55;101165.91;4956536;28;20023;-74
2021/07/25 00:43:44;;;;;;;15.82;9.48;;;21.00;99.90;;;20.08;70.48;101161.16;4972155;28;20030;-74
2021/07/25 00:46:13;;;;;;;19.05;10.50;;;21.00;99.90;;;20.10;70.35;101157.53;5004262;28;20042;-74
2021/07/25 00:48:39;;;;;;;16.95;9.65;;;21.00;99.90;;;20.11;70.37;101157.41;4985553;28;20057;-74
2021/07/25 00:51:06;;;;;;;21.85;9.93;;;21.00;99.90;;;20.06;70.59;101143.53;4955144;28;20031;-74
2021/07/25 00:53:42;;;;;;;16.23;9.95;;;21.00;99.90;;;20.16;69.65;101152.53;4936140;28;20051;-74
2021/07/25 00:56:09;;;;;;;15.50;9.87;;;21.00;99.90;;;20.08;70.13;101137.09;4971403;28;20039;-74
2021/07/25 00:58:42;;;;;;;30.70;9.73;;;21.00;99.90;;;20.12;69.91;101134.19;4968853;28;20034;-74
2021/07/25 01:01:11;;;;;;;18.05;10.05;;;21.00;99.90;;;20.02;70.84;101113.56;4970344;28;20042;-74
2021/07/25 01:04:38;;;;;;;15.60;9.68;;;21.00;99.90;;;20.06;70.09;101122.16;4954040;28;20033;-74
2021/07/25 01:07:35;;;;;;;15.35;10.25;;;21.00;99.90;;;20.07;69.82;101107.84;5004907;28;20050;-74
2021/07/25 01:10:23;;;;;;;20.05;9.77;;;21.00;99.90;;;20.23;69.17;101104.75;4989825;28;20034;-74
2021/07/25 01:13:00;;;;;;;18.67;9.88;;;21.00;99.90;;;20.13;69.63;101099.31;4988499;28;20513;-73
2021/07/25 01:15:30;;;;;;;20.05;9.98;;;21.00;99.90;;;20.11;69.99;101089.69;4974666;28;20046;-74
2021/07/25 01:17:59;;;;;;;16.88;9.32;;;21.00;99.90;;;20.09;69.85;101087.19;4973831;28;20117;-74
2021/07/25 01:20:25;;;;;;;19.05;9.95;;;21.00;99.90;;;20.20;69.50;101095.16;4971141;28;20516;-74
2021/07/25 01:22:55;;;;;;;16.15;8.80;;;21.00;99.90;;;20.10;69.89;101083.50;4957024;28;20478;-73
2021/07/25 01:25:25;;;;;;;17.40;9.50;;;21.00;99.90;;;20.09;69.86;101081.84;4952656;28;20031;-74
2021/07/25 01:28:20;;;;;;;15.70;9.25;;;21.00;99.90;;;20.13;69.61;101082.41;4953325;28;20039;-74
2021/07/25 01:30:59;;;;;;;26.13;9.65;;;21.00;99.90;;;20.04;70.21;101066.16;4985159;28;20114;-74
2021/07/25 01:33:30;;;;;;;16.33;9.85;;;20.90;99.90;;;19.98;70.25;101060.47;5004159;28;20030;-74
2021/07/25 01:36:01;;;;;;;28.40;10.10;;;20.90;99.90;;;20.02;70.44;101062.78;4989955;28;20042;-74
2021/07/25 01:38:28;;;;;;;18.65;10.05;;;20.90;99.90;;;20.04;70.62;101059.94;5002996;28;20046;-73
2021/07/25 01:41:18;;;;;;;19.35;9.23;;;20.90;99.90;;;20.00;71.15;101253.63;5005815;28;20371;-74
2021/07/25 01:43:51;;;;;;;16.13;10.02;;;20.90;99.90;;;20.00;71.19;101198.34;5003651;28;20018;-74
2021/07/25 01:46:18;;;;;;;20.75;9.80;;;20.90;99.90;;;19.98;70.59;101168.22;5012360;28;20030;-74
2021/07/25 01:48:45;;;;;;;22.83;9.27;;;20.90;99.90;;;19.92;71.23;101106.41;4970819;28;20502;-74
2021/07/25 01:51:13;;;;;;;14.68;9.00;;;20.90;99.90;;;19.99;70.61;101153.88;4972428;28;20464;-74
2021/07/25 01:53:39;;;;;;;16.13;9.57;;;20.90;99.90;;;19.92;70.70;101141.13;4970611;28;20042;-74
2021/07/25 01:56:05;;;;;;;23.77;12.23;;;20.80;99.90;;;19.88;70.98;101138.69;4956702;28;20034;-75
2021/07/25 01:58:31;;;;;;;14.68;10.07;;;20.80;99.90;;;19.88;71.09;101152.06;5003861;28;20073;-74
2021/07/25 02:00:57;;;;;;;14.75;10.05;;;20.70;99.90;;;19.84;71.40;101139.91;4989190;28;20027;-74
2021/07/25 02:03:26;;;;;;;17.13;9.77;;;20.70;99.90;;;19.76;71.73;101129.00;5003296;28;20066;-74
2021/07/25 02:05:53;;;;;;;15.75;9.30;;;20.70;99.90;;;19.82;71.44;101141.84;4972233;28;20030;-74
2021/07/25 02:08:20;;;;;;;25.45;10.98;;;20.70;99.90;;;19.80;71.78;101141.13;4972178;28;20093;-74
2021/07/25 02:10:49;;;;;;;19.20;11.15;;;20.60;99.90;;;19.74;72.11;101135.41;4985759;28;20027;-74
2021/07/25 02:13:17;;;;;;;19.33;10.60;;;20.60;99.90;;;19.66;72.17;101133.31;4972714;28;20034;-74
2021/07/25 02:15:44;;;;;;;21.08;10.63;;;20.60;99.90;;;19.63;72.33;101128.19;4970751;28;20030;-74
2021/07/25 02:18:11;;;;;;;26.38;10.40;;;20.60;99.90;;;19.64;72.19;101120.09;4956512;28;20124;-73
2021/07/25 02:20:37;;;;;;;18.02;10.80;;;20.60;99.90;;;19.69;71.90;101127.72;4953687;28;20045;-74
2021/07/25 02:23:03;;;;;;;20.55;10.95;;;20.60;99.90;;;19.74;72.00;101120.25;4973126;28;20035;-74
2021/07/25 02:25:30;;;;;;;16.13;9.52;;;20.60;99.90;;;19.70;72.04;101139.28;4970937;28;20026;-74
2021/07/25 02:27:56;;;;;;;22.08;10.43;;;20.60;99.90;;;19.74;71.94;101127.41;4953395;28;20106;-73
2021/07/25 02:30:23;;;;;;;23.50;11.60;;;20.60;99.90;;;19.61;72.75;101112.31;4968239;28;20527;-75
2021/07/25 02:32:49;;;;;;;19.48;10.18;;;20.60;99.90;;;19.60;72.77;101113.28;4967468;28;20023;-74
2021/07/25 02:35:15;;;;;;;19.88;10.40;;;20.50;99.90;;;19.60;72.59;101113.28;4987003;28;20023;-74
2021/07/25 02:37:40;;;;;;;20.92;10.05;;;20.50;99.90;;;19.60;72.78;101107.09;4971769;28;20046;-74
2021/07/25 02:40:07;;;;;;;21.75;10.35;;;20.50;99.90;;;19.58;72.97;101095.69;4964186;28;20486;-74
2021/07/25 02:42:33;;;;;;;25.38;10.77;;;20.50;99.90;;;19.50;73.53;101093.59;4985892;28;20163;-75
2021/07/25 02:44:59;;;;;;;18.33;10.63;;;20.50;99.90;;;19.54;73.48;101086.19;4972955;28;20113;-74
2021/07/25 02:47:25;;;;;;;24.88;10.82;;;20.40;99.90;;;19.48;73.54;101079.50;5004858;28;20022;-74
2021/07/25 02:49:51;;;;;;;18.77;10.65;;;20.40;99.90;;;19.42;74.21;101072.00;4986880;28;20030;-74
2021/07/25 02:52:17;;;;;;;15.88;10.77;;;20.40;99.90;;;19.44;74.23;101062.91;4973476;28;20117;-74
2021/07/25 02:54:43;;;;;;;16.70;10.40;;;20.30;99.90;;;19.44;74.07;101070.91;4985839;28;20035;-74
2021/07/25 02:57:09;;;;;;;17.77;10.85;;;20.30;99.90;;;19.46;74.32;101071.63;4973386;28;20145;-74
2021/07/25 02:59:34;;;;;;;26.00;11.18;;;20.30;99.90;;;19.34;74.88;101053.06;5002702;28;20467;-73
2021/07/25 03:02:00;;;;;;;20.48;10.63;;;20.30;99.90;;;19.35;75.13;101065.44;4952347;28;20032;-74
2021/07/25 03:04:27;;;;;;;18.35;10.35;;;20.30;99.90;;;19.36;75.01;101054.63;4929984;28;20034;-74
2021/07/25 03:06:53;;;;;;;18.10;10.15;;;20.30;99.90;;;19.36;75.35;101045.78;4966273;28;20077;-74
2021/07/25 03:09:19;;;;;;;22.15;11.25;;;20.20;99.90;;;19.41;75.21;101041.75;4985277;28;20026;-74
2021/07/25 03:11:45;;;;;;;17.10;10.13;;;20.30;99.90;;;19.37;75.43;101042.13;4951318;28;20466;-74
2021/07/25 03:14:10;;;;;;;15.45;10.35;;;20.30;99.90;;;19.32;75.78;101031.81;4952626;28;20054;-74
2021/07/25 03:16:36;;;;;;;22.48;11.18;;;20.20;99.90;;;19.35;75.38;101028.03;4935280;28;20463;-74
2021/07/25 03:19:02;;;;;;;17.33;10.40;;;20.20;99.90;;;19.32;75.66;101025.63;4935138;28;20085;-75
2021/07/25 03:21:28;;;;;;;18.10;10.60;;;20.20;99.90;;;19.34;75.52;101023.69;4936856;28;20050;-75
2021/07/25 03:23:54;;;;;;;23.60;12.07;;;20.20;99.90;;;19.31;75.70;101029.25;4950850;28;20035;-74
2021/07/25 03:26:20;;;;;;;18.33;11.20;;;20.20;99.90;;;19.25;76.20;101018.09;4936565;28;20052;-75
2021/07/25 03:28:46;;;;;;;19.48;10.60;;;20.20;99.90;;;19.29;75.97;101013.38;4935900;28;20034;-74
2021/07/25 03:31:12;;;;;;;19.13;10.65;;;20.20;99.90;;;19.24;76.21;101010.19;4950160;28;20027;-74
2021/07/25 03:33:38;;;;;;;19.30;11.27;;;20.10;99.90;;;19.19;76.39;101001.72;4970006;28;20483;-74
2021/07/25 03:36:04;;;;;;;23.23;11.55;;;20.10;99.90;;;19.19;76.41;100999.06;4966337;28;20390;-75
2021/07/25 03:38:30;;;;;;;17.55;10.55;;;20.10;99.90;;;19.15;76.42;100998.44;4952465;28;20042;-73
2021/07/25 03:41:05;;;;;;;20.17;11.40;;;20.10;99.90;;;19.13;76.59;100995.03;4971882;28;20093;-74
2021/07/25 03:43:32;;;;;;;21.05;10.70;;;20.00;99.90;;;19.10;76.81;101000.63;4972005;28;20383;-74
2021/07/25 03:45:59;;;;;;;18.35;10.55;;;20.10;99.90;;;19.20;76.67;101008.75;5002151;28;20086;-74
2021/07/25 03:48:27;;;;;;;22.45;10.98;;;20.10;99.90;;;19.18;76.87;101008.00;4968167;28;20027;-74
2021/07/25 03:50:53;;;;;;;20.92;11.57;;;20.10;99.90;;;19.16;77.17;101008.16;4983236;28;20034;-74
2021/07/25 03:53:19;;;;;;;25.48;11.20;;;20.00;99.90;;;19.09;77.64;100996.25;4966714;28;20031;-74
2021/07/25 03:55:46;;;;;;;24.23;11.80;;;20.10;99.90;;;19.15;77.43;101006.44;4938513;28;20027;-75
2021/07/25 03:58:12;;;;;;;23.48;11.32;;;20.10;99.90;;;19.10;77.49;101002.44;4990847;28;20117;-74
2021/07/25 04:00:38;;;;;;;23.73;11.45;;;20.10;99.90;;;19.10;77.60;101000.63;4958002;28;20031;-73
2021/07/25 04:03:04;;;;;;;18.50;11.27;;;20.10;99.90;;;19.22;76.95;101009.47;5008244;28;20038;-74
2021/07/25 04:05:31;;;;;;;20.50;11.10;;;20.10;99.90;;;19.27;77.01;101004.63;4988593;28;20026;-74
2021/07/25 04:07:56;;;;;;;25.25;11.85;;;20.20;99.90;;;19.24;77.35;101045.78;4990618;28;20026;-74
2021/07/25 04:10:22;;;;;;;18.20;10.93;;;20.20;99.90;;;19.27;77.18;101048.19;5006234;28;20027;-74
2021/07/25 04:12:49;;;;;;;16.55;10.50;;;20.20;99.90;;;19.25;77.69;101049.28;4991253;28;20466;-74
2021/07/25 04:15:15;;;;;;;19.98;11.60;;;20.20;99.90;;;19.24;77.53;101036.91;4988810;28;20390;-74
2021/07/25 04:17:41;;;;;;;18.50;10.98;;;20.10;99.90;;;19.19;78.11;101033.75;5005105;28;20117;-74
2021/07/25 04:20:08;;;;;;;20.55;11.43;;;20.10;99.90;;;19.21;78.31;101047.81;4975922;28;20654;-74
2021/07/25 04:22:37;;;;;;;23.45;11.27;;;20.10;99.90;;;19.27;78.32;101039.34;4987425;28;20042;-73
2021/07/25 04:25:08;;;;;;;18.85;10.63;;;20.20;99.90;;;19.18;78.81;101032.91;4990574;28;20030;-74
2021/07/25 04:27:36;;;;;;;18.40;11.35;;;20.20;99.90;;;19.27;78.26;101026.84;4985857;28;20027;-74
2021/07/25 04:30:03;;;;;;;17.30;10.95;;;20.20;99.90;;;19.34;77.77;101035.22;4955393;28;20026;-74
2021/07/25 04:32:30;;;;;;;23.17;10.63;;;20.30;99.90;;;19.33;78.22;101030.84;4955065;28;20027;-74
2021/07/25 04:34:55;;;;;;;24.25;10.60;;;20.30;99.90;;;19.37;78.37;101026.97;4940517;28;20034;-74
2021/07/25 04:37:24;;;;;;;18.38;10.60;;;20.30;99.90;;;19.43;78.03;101025.63;4972002;28;20388;-74
2021/07/25 04:39:50;;;;;;;21.05;10.98;;;20.30;99.90;;;19.35;78.40;101015.56;5006313;28;20046;-74
2021/07/25 04:42:25;;;;;;;17.42;10.15;;;20.30;99.90;;;19.40;78.53;101028.56;5004576;28;20093;-74
2021/07/25 04:45:07;;;;;;;17.70;10.80;;;20.30;99.90;;;19.47;78.68;101035.94;4974891;28;20474;-74
2021/07/25 04:47:48;;;;;;;29.83;10.75;;;20.40;99.90;;;19.57;78.10;101043.25;5005647;28;20026;-74
2021/07/25 04:50:25;;;;;;;23.65;10.10;;;20.40;99.90;;;19.54;77.82;101033.63;4988040;28;20479;-74
2021/07/25 04:53:00;;;;;;;17.25;9.93;;;20.40;99.90;;;19.51;77.81;101025.03;4973731;28;20471;-74
2021/07/25 04:55:35;;;;;;;18.65;10.57;;;20.50;99.90;;;19.61;77.22;101036.66;4953689;28;20019;-75
2021/07/25 04:58:07;;;;;;;17.70;10.55;;;20.40;99.90;;;19.58;77.69;101039.59;4969749;28;20051;-74
2021/07/25 05:00:41;;;;;;;19.27;10.98;;;20.50;99.90;;;19.52;77.62;101026.72;5004235;28;20034;-74
2021/07/25 05:03:09;;;;;;;17.70;9.90;;;20.50;99.90;;;19.57;78.00;101032.56;4972261;28;20037;-74
2021/07/25 05:05:35;;;;;;;18.52;10.50;;;20.50;99.90;;;19.60;77.66;101030.47;4976573;28;20019;-74
2021/07/25 05:08:02;;;;;;;16.50;9.95;;;20.50;99.90;;;19.62;77.13;101025.84;4937980;28;20038;-74
2021/07/25 05:10:30;;;;;;;19.75;10.02;;;20.50;99.90;;;19.66;77.07;101038.00;4968177;28;20038;-75
2021/07/25 05:13:11;;;;;;;14.63;9.57;;;20.60;99.90;;;19.72;76.37;101015.34;4954407;28;20023;-73
2021/07/25 05:15:41;;;;;;;18.88;9.80;;;20.60;99.90;;;19.70;76.30;101085.88;4971533;28;20035;-74
2021/07/25 05:18:19;;;;;;;17.48;9.50;;;20.70;99.90;;;19.78;76.09;101088.78;4966809;28;20043;-75
2021/07/25 05:21:26;;;;;;;15.63;9.10;;;20.70;99.90;;;19.81;75.42;101093.91;4970436;28;20503;-74
2021/07/25 05:23:57;;;;;;;14.53;8.77;;;20.80;99.90;;;19.92;74.66;101091.22;4969719;28;20041;-74
2021/07/25 05:26:26;;;;;;;16.25;8.88;;;20.80;99.90;;;19.99;75.05;101091.56;4965440;28;20034;-74
2021/07/25 05:28:58;;;;;;;16.75;9.95;;;20.90;99.90;;;20.02;74.78;101132.28;4984052;28;20030;-74
2021/07/25 05:31:35;;;;;;;15.38;9.68;;;21.00;99.90;;;20.14;74.67;101113.53;4973614;28;20144;-74
2021/07/25 05:34:02;;;;;;;14.18;8.77;;;21.00;99.90;;;20.29;74.20;101137.19;4972587;28;20390;-74
2021/07/25 05:36:29;;;;;;;12.13;8.48;;;21.20;99.90;;;20.42;73.86;101134.38;5007393;28;20034;-74
2021/07/25 05:38:55;;;;;;;17.40;9.38;;;21.30;99.90;;;20.42;72.54;101131.69;4986234;28;20052;-74
2021/07/25 05:41:21;;;;;;;15.55;9.27;;;21.30;99.90;;;20.34;72.90;101119.94;4973141;28;20471;-74
2021/07/25 05:43:48;;;;;;;15.63;9.60;;;21.30;99.90;;;20.46;72.55;101119.78;4968958;28;20117;-74
2021/07/25 05:46:14;;;;;;;17.55;9.60;;;21.40;99.90;;;20.47;72.23;101115.25;4969816;28;20042;-75
2021/07/25 05:48:39;;;;;;;15.73;9.18;;;21.40;99.90;;;20.52;72.80;101115.75;4952099;28;20045;-75
2021/07/25 05:51:05;;;;;;;14.32;8.93;;;21.40;99.90;;;20.54;72.37;101116.47;4954197;28;20023;-74
2021/07/25 05:53:32;;;;;;;15.45;9.15;;;21.50;99.90;;;20.71;72.06;101125.78;4949257;28;20073;-74
2021/07/25 05:55:58;;;;;;;17.35;9.73;;;21.50;99.90;;;20.65;71.54;101119.16;4938142;28;20046;-74
2021/07/25 05:58:25;;;;;;;14.35;9.40;;;21.40;99.90;;;20.52;72.51;101097.03;4935987;28;20039;-75
2021/07/25 06:00:52;;;;;;;20.60;9.43;;;21.50;99.90;;;20.74;70.84;101114.00;4969942;28;20034;-75
2021/07/25 06:03:18;;;;;;;16.85;8.85;;;21.70;99.90;;;20.88;70.42;101117.22;4955687;28;20035;-75
2021/07/25 06:05:44;;;;;;;19.15;9.10;;;21.90;99.90;;;21.18;69.52;101133.50;4935730;28;20042;-74
2021/07/25 06:08:10;;;;;;;19.13;8.85;;;22.00;99.90;;;21.12;69.00;101126.81;4984073;28;20491;-74
2021/07/25 06:10:42;;;;;;;19.30;10.13;;;22.20;99.90;;;21.54;68.00;101166.19;4935484;28;20031;-75
2021/07/25 06:13:08;;;;;;;16.13;9.68;;;22.60;99.90;;;21.91;65.97;101174.56;4993171;28;20097;-74
2021/07/25 06:15:35;;;;;;;20.38;9.35;;;22.90;99.90;;;22.23;65.18;101201.25;4966294;28;20102;-75
2021/07/25 06:18:02;;;;;;;15.13;9.93;;;23.10;99.90;;;22.22;64.43;101174.53;4950806;28;20070;-74
2021/07/25 06:20:32;;;;;;;17.33;9.65;;;23.40;99.90;;;23.15;62.55;101240.44;4990115;28;20031;-74
2021/07/25 06:23:00;;;;;;;15.70;9.38;;;23.90;99.90;;;22.79;61.73;101169.47;4952194;28;20034;-74
2021/07/25 06:25:33;;;;;;;13.73;8.75;;;23.40;99.90;;;22.11;64.35;101122.69;4952720;28;20047;-75
2021/07/25 06:28:03;;;;;;;23.20;8.98;;;23.00;99.90;;;22.11;65.24;101137.94;4953882;28;20039;-74
2021/07/25 06:30:30;;;;;;;15.50;9.23;;;22.70;99.90;;;22.02;65.83;101118.16;4952489;28;20078;-74
2021/07/25 06:33:08;;;;;;;16.02;8.98;;;23.10;99.90;;;22.66;64.20;101178.63;4984114;28;20102;-75
2021/07/25 06:35:42;;;;;;;14.00;9.02;;;23.60;99.90;;;23.13;61.86;101202.13;5011299;28;20034;-74
2021/07/25 06:38:18;;;;;;;16.20;9.02;;;24.20;99.90;;;23.72;59.26;101224.41;5004362;28;20046;-74
2021/07/25 06:40:51;;;;;;;14.13;8.97;;;24.30;99.90;;;23.64;60.03;101213.53;4969645;28;20510;-74
2021/07/25 06:43:19;;;;;;;12.00;8.45;;;24.30;99.90;;;23.84;59.08;101217.03;4972589;28;20041;-74
2021/07/25 06:45:45;;;;;;;20.25;9.65;;;24.60;99.90;;;23.92;58.46;101218.00;4987547;28;20073;-74
2021/07/25 06:48:26;;;;;;;16.50;9.38;;;24.50;99.90;;;24.01;58.28;101216.28;4988093;28;20045;-74
2021/07/25 06:50:58;;;;;;;17.45;9.25;;;24.60;99.90;;;24.23;58.31;101219.59;4954535;28;21419;-74
2021/07/25 06:53:30;;;;;;;13.27;8.85;;;24.70;99.90;;;24.22;57.62;101202.59;4954943;28;20038;-74
2021/07/25 06:56:03;;;;;;;13.93;9.00;;;25.30;99.90;;;25.01;55.02;101260.41;5003002;28;20034;-74
2021/07/25 06:58:30;;;;;;;14.40;9.13;;;25.80;99.90;;;25.48;52.22;101276.34;4971131;28;20042;-74
2021/07/25 07:00:55;;;;;;;15.35;9.32;;;26.20;99.90;;;25.69;52.05;101259.00;4987770;28;20026;-74
2021/07/25 07:03:21;;;;;;;14.50;8.15;;;26.00;99.90;;;25.66;52.34;101241.28;4987708;28;20492;-74
2021/07/25 07:05:48;;;;;;;15.60;9.40;;;26.20;99.90;;;25.91;52.26;101261.19;4971975;28;20085;-74
2021/07/25 07:08:14;;;;;;;15.38;8.77;;;26.60;99.90;;;26.08;50.51;101255.91;4970236;28;20034;-75
2021/07/25 07:10:43;;;;;;;14.93;8.52;;;26.40;99.90;;;26.15;49.98;101249.69;4954391;28;20034;-75
2021/07/25 07:13:13;;;;;;;18.02;8.65;;;26.60;99.90;;;26.30;50.14;101259.91;4971042;28;20030;-75
2021/07/25 07:15:45;;;;;;;14.65;8.70;;;26.80;99.90;;;26.58;48.84;101265.97;5003415;28;20035;-74
2021/07/25 07:18:11;;;;;;;13.45;8.23;;;26.60;99.90;;;25.93;51.24;101199.00;4979808;28;20045;-74
2021/07/25 07:20:37;;;;;;;15.60;8.60;;;26.30;99.90;;;26.11;50.36;101220.50;4966519;28;20038;-75
2021/07/25 07:23:10;;;;;;;17.70;8.80;;;26.60;99.90;;;26.45;49.35;101233.97;4936935;28;20051;-74
2021/07/25 07:25:47;;;;;;;17.13;8.60;;;26.90;99.90;;;26.79;49.07;101260.97;4982148;28;20041;-74
2021/07/25 07:28:15;;;;;;;12.32;8.07;;;27.20;99.90;;;26.85;48.42;101237.00;4984884;28;20034;-74
2021/07/25 07:30:42;;;;;;;12.48;8.18;;;26.60;99.90;;;26.12;50.51;101181.72;4989636;28;20503;-74
2021/07/25 07:33:11;;;;;;;17.05;9.40;;;26.60;99.90;;;26.26;51.61;101194.59;4990101;28;20149;-74
2021/07/25 07:35:39;;;;;;;14.05;7.82;;;26.90;99.90;;;26.32;50.04;101166.09;4993877;28;20352;-74
2021/07/25 07:38:07;;;;;;;14.30;8.80;;;26.60;99.90;;;25.82;51.57;101132.66;4978152;28;21049;-75
2021/07/25 07:40:34;;;;;;;10.77;7.65;;;25.80;99.90;;;24.60;54.82;101039.22;4968652;28;20022;-75
2021/07/25 07:43:02;;;;;;;12.95;8.07;;;25.50;99.90;;;24.27;55.21;101020.03;5008808;28;20042;-75
2021/07/25 07:45:29;;;;;;;12.73;8.23;;;25.10;99.90;;;24.56;54.86;101067.44;4977066;28;20019;-74
2021/07/25 07:47:55;;;;;;;18.63;8.63;;;25.50;99.90;;;25.87;51.64;101178.03;4977408;28;20072;-74
2021/07/25 07:50:22;;;;;;;13.38;7.90;;;26.80;99.90;;;27.34;48.03;101269.50;4966894;28;20177;-75
2021/07/25 07:52:49;;;;;;;12.20;7.78;;;27.30;99.90;;;27.26;46.41;101213.59;4978216;28;20026;-74
2021/07/25 07:55:16;;;;;;;11.23;8.40;;;27.70;99.90;;;27.55;45.01;101229.28;5005046;28;20092;-74
2021/07/25 07:57:44;;;;;;;13.25;8.43;;;27.60;99.90;;;27.50;48.74;101214.59;4991891;28;20105;-75
2021/07/25 08:00:12;;;;;;;12.52;8.57;;;28.30;99.90;;;28.41;42.82;101273.75;4978550;28;20042;-74
2021/07/25 08:02:39;;;;;;;12.20;8.38;;;28.80;99.90;;;28.70;42.81;101266.88;4976273;28;20030;-74
2021/07/25 08:05:05;;;;;;;16.10;7.95;;;28.70;99.90;;;28.50;44.61;101236.69;4995617;28;20446;-75
2021/07/25 08:07:32;;;;;;;12.10;8.27;;;28.90;99.90;;;28.70;42.83;101239.78;5009081;28;20030;-74
2021/07/25 08:09:58;;;;;;;13.98;7.88;;;28.90;99.90;;;29.04;43.29;101265.66;4978141;28;20041;-74
2021/07/25 08:12:24;;;;;;;14.50;8.18;;;28.70;99.90;;;28.53;42.30;101214.69;4991359;28;20075;-74
2021/07/25 08:14:50;;;;;;;12.50;7.38;;;28.80;99.90;;;28.71;44.50;101200.84;4961583;28;20375;-74
2021/07/25 08:17:16;;;;;;;11.80;8.35;;;28.40;99.90;;;27.79;46.08;101116.63;4979572;28;20022;-74
2021/07/25 08:19:43;;;;;;;13.77;8.25;;;28.60;99.90;;;28.33;46.54;101179.00;4976481;28;20073;-73
2021/07/25 08:22:10;;;;;;;12.90;8.50;;;28.20;99.90;;;27.47;46.36;101085.97;4977561;28;20089;-74
2021/07/25 08:24:39;;;;;;;14.35;8.93;;;28.10;99.90;;;27.80;46.12;101121.88;4976357;28;20019;-73
2021/07/25 08:27:10;;;;;;;12.80;8.68;;;28.10;99.90;;;27.22;46.46;101055.47;4993509;28;20025;-75
2021/07/25 08:29:37;;;;;;;10.60;8.15;;;28.20;99.90;;;27.64;44.83;101158.97;4992659;28;20133;-74
2021/07/25 08:32:05;;;;;;;11.85;8.07;;;28.50;99.90;;;28.00;45.66;101064.66;4993526;28;20093;-74
2021/07/25 08:34:31;;;;;;;12.23;7.88;;;28.60;99.90;;;27.53;45.13;101052.81;4958264;28;20053;-75
2021/07/25 08:36:57;;;;;;;18.20;8.15;;;28.60;99.90;;;28.46;44.92;101145.09;4960507;28;20027;-74
2021/07/25 08:39:23;;;;;;;12.88;8.50;;;28.40;99.90;;;27.79;45.75;101073.34;4970812;28;20039;-74
2021/07/25 08:42:10;;;;;;;15.20;7.32;;;28.40;99.90;;;27.76;46.29;101079.13;4970393;28;20031;-75
2021/07/25 08:44:50;;;;;;;12.75;8.30;;;28.70;99.90;;;28.43;45.24;101128.19;4957042;28;20101;-74
2021/07/25 08:47:36;;;;;;;10.63;8.43;;;28.90;99.90;;;28.38;45.29;101106.22;4972713;28;20559;-75
2021/07/25 08:50:15;;;;;;;13.48;8.18;;;28.60;99.90;;;27.69;46.79;101022.19;4982685;28;20141;-74
2021/07/25 08:52:45;;;;;;;11.63;7.90;;;29.10;99.90;;;28.20;44.47;101054.22;5015443;28;20030;-74
2021/07/25 08:55:17;;;;;;;11.75;8.00;;;29.20;99.90;;;28.37;44.89;101069.31;4978219;28;20030;-74
2021/07/25 08:57:46;;;;;;;17.45;8.00;;;29.00;99.90;;;28.01;46.46;101025.72;4973076;28;20047;-73
2021/07/25 09:00:24;;;;;;;14.95;8.15;;;29.00;99.90;;;28.14;45.40;101041.38;4969467;28;20027;-74
2021/07/25 09:02:59;;;;;;;15.10;7.93;;;29.00;99.90;;;27.72;46.17;100983.94;4905255;28;20042;-74
2021/07/25 09:05:44;;;;;;;11.48;8.13;;;28.70;99.90;;;27.78;47.35;101020.28;4933171;28;20046;-74
2021/07/25 09:08:27;;;;;;;13.05;8.45;;;28.90;99.90;;;28.27;45.75;100992.91;4942192;28;20380;-74
2021/07/25 09:11:06;;;;;;;13.20;8.40;;;29.10;99.90;;;27.60;46.10;100933.97;4929877;28;20613;-74
2021/07/25 09:13:58;;;;;;;15.52;9.15;;;28.90;99.40;;;28.47;43.82;101028.47;4922543;28;20060;-75
2021/07/25 09:16:30;;;;;;;13.25;8.32;;;28.80;99.10;;;27.98;44.51;100978.22;4898885;28;20110;-75
2021/07/25 09:19:16;;;;;;;13.13;8.50;;;28.20;99.90;;;27.53;45.25;100950.06;4950860;28;20580;-74
2021/07/25 09:21:59;;;;;;;12.35;8.13;;;28.40;99.80;;;27.74;45.17;100972.94;4943807;28;20057;-75
2021/07/25 09:24:43;;;;;;;10.88;8.02;;;28.20;99.90;;;27.57;45.61;100934.31;4953210;28;20490;-74
2021/07/25 09:27:32;;;;;;;14.38;8.75;;;28.20;99.90;;;27.34;46.24;100912.63;4925245;28;20093;-75
2021/07/25 09:30:21;;;;;;;15.85;8.95;;;27.90;99.90;;;27.01;46.66;100883.03;4951100;28;20553;-74
2021/07/25 09:32:56;;;;;;;12.68;8.48;;;28.10;99.90;;;27.64;45.80;100999.38;4945017;28;20529;-74
2021/07/25 09:35:47;;;;;;;11.52;8.20;;;28.20;99.60;;;27.49;44.38;100924.38;4942579;28;20687;-74
2021/07/25 09:38:39;;;;;;;16.23;8.80;;;28.20;99.50;;;27.38;45.33;100901.28;4928914;28;20104;-74
2021/07/25 09:41:32;;;;;;;13.88;8.60;;;28.20;99.70;;;27.61;45.01;100925.66;4957368;28;20043;-74
2021/07/25 09:44:09;;;;;;;11.68;8.20;;;28.50;98.90;;;27.65;42.97;100922.63;4941220;28;20053;-74
2021/07/25 09:47:01;;;;;;;11.27;8.30;;;28.40;99.20;;;27.94;43.05;100955.25;4928279;28;20038;-74
2021/07/25 09:49:45;;;;;;;14.13;8.68;;;28.40;99.10;;;28.26;43.23;100966.03;4947613;28;20027;-74
2021/07/25 09:52:30;;;;;;;11.30;8.10;;;29.00;99.30;;;28.37;41.41;100949.34;4928898;28;20034;-75
2021/07/25 09:55:21;;;;;;;13.10;8.30;;;28.80;97.50;;;27.98;42.34;100898.91;4950383;28;20042;-74
2021/07/25 09:58:09;;;;;;;11.65;8.25;;;28.70;98.40;;;28.07;42.70;100911.34;4945544;28;20035;-75
2021/07/25 10:00:57;;;;;;;15.45;8.80;;;28.80;98.70;;;28.54;42.62;100950.06;4928430;28;20121;-75
2021/07/25 10:03:24;;;;;;;16.38;8.60;;;28.90;98.50;;;27.95;42.16;100861.41;5001455;28;20030;-75
2021/07/25 10:05:53;;;;;;;12.68;8.10;;;28.80;97.80;;;28.34;42.12;100912.66;4956976;28;20089;-75
2021/07/25 10:08:23;;;;;;;13.93;8.70;;;29.20;98.60;;;28.70;42.46;100919.25;4970586;28;20039;-75
2021/07/25 10:10:55;;;;;;;18.27;8.23;;;29.10;97.30;;;28.78;41.05;100935.44;4973257;28;20478;-74
2021/07/25 10:13:23;;;;;;;11.65;8.23;;;29.60;97.50;;;29.31;40.38;100948.88;4970946;28;20390;-74
2021/07/25 10:16:00;;;;;;;10.70;8.23;;;29.50;96.60;;;28.48;42.18;100878.50;4972541;28;20032;-74
2021/07/25 10:18:27;;;;;;;11.93;8.02;;;29.30;97.10;;;28.51;41.17;100888.97;5011375;28;20063;-75